Terminal Aerodrome Forecast
Issued by NWS

Home | Current Version | Previous Version | Text Only | Print | Product List | Glossary Off
Versions: 1 2 3 4 5 6 7 8 9 10 11 12 13 14 15

000
FTUS45 KGGW 161700
TAFGDV
TAF
KGDV 161736Z 1618/1718 03011KT P6SM BKN020
     FM162100 07010KT P6SM SCT025 OVC050
     FM170000 08010KT 6SM -SHSN OVC025
     FM171100 10010KT P6SM OVC011
      AMD LTD TO CLD VIS AND WIND=

USA.gov is the U.S. government's official web portal to all federal, state and local government web resources and services.